sensor_id;sensor_type;location;lat;lon;timestamp;pressure;altitude;pressure_sealevel;temperature;humidity
32789;BME280;19141;48.980;8.410;2023-06-14T04:22:34;99832.50;;;14.09;67.57
32789;BME280;19141;48.980;8.410;2023-06-14T04:25:00;99835.19;;;14.16;67.52
32789;BME280;19141;48.980;8.410;2023-06-14T04:27:27;99842.41;;;14.15;68.00
32789;BME280;19141;48.980;8.410;2023-06-14T04:29:54;99838.69;;;14.23;68.04
32789;BME280;19141;48.980;8.410;2023-06-14T04:32:24;99849.78;;;14.26;67.32
32789;BME280;19141;48.980;8.410;2023-06-14T04:34:55;99844.66;;;14.31;66.94
32789;BME280;19141;48.980;8.410;2023-06-14T04:37:22;99850.59;;;14.33;66.87
32789;BME280;19141;48.980;8.410;2023-06-14T04:39:48;99844.25;;;14.41;67.34
32789;BME280;19141;48.980;8.410;2023-06-14T04:42:14;99855.13;;;14.39;67.70
32789;BME280;19141;48.980;8.410;2023-06-14T04:44:43;99853.72;;;14.44;66.94
32789;BME280;19141;48.980;8.410;2023-06-14T04:47:10;99852.09;;;14.49;66.99
32789;BME280;19141;48.980;8.410;2023-06-14T04:49:38;99857.66;;;14.54;66.52
32789;BME280;19141;48.980;8.410;2023-06-14T04:52:05;99860.09;;;14.62;66.46
32789;BME280;19141;48.980;8.410;2023-06-14T04:54:36;99861.94;;;14.69;66.25
32789;BME280;19141;48.980;8.410;2023-06-14T04:57:11;99865.22;;;14.77;65.78
32789;BME280;19141;48.980;8.410;2023-06-14T04:59:43;99868.09;;;14.82;65.68
32789;BME280;19141;48.980;8.410;2023-06-14T05:02:10;99871.00;;;14.87;65.60
32789;BME280;19141;48.980;8.410;2023-06-14T05:04:37;99877.56;;;14.91;64.94
32789;BME280;19141;48.980;8.410;2023-06-14T05:07:08;99873.00;;;14.99;65.21
32789;BME280;19141;48.980;8.410;2023-06-14T05:09:37;99877.69;;;15.16;66.01
32789;BME280;19141;48.980;8.410;2023-06-14T05:12:03;99885.09;;;15.28;65.45
32789;BME280;19141;48.980;8.410;2023-06-14T05:14:29;99880.28;;;15.36;65.04
32789;BME280;19141;48.980;8.410;2023-06-14T05:16:56;99881.75;;;15.39;63.88
32789;BME280;19141;48.980;8.410;2023-06-14T05:19:22;99874.72;;;15.38;63.81
32789;BME280;19141;48.980;8.410;2023-06-14T05:21:47;99885.78;;;15.55;64.21
32789;BME280;19141;48.980;8.410;2023-06-14T05:24:14;99885.97;;;15.60;64.67
32789;BME280;19141;48.980;8.410;2023-06-14T05:26:39;99887.84;;;15.66;64.05
32789;BME280;19141;48.980;8.410;2023-06-14T05:29:05;99885.91;;;15.80;62.39
32789;BME280;19141;48.980;8.410;2023-06-14T05:31:30;99891.41;;;15.91;61.70
32789;BME280;19141;48.980;8.410;2023-06-14T05:33:56;99887.88;;;15.97;61.94
32789;BME280;19141;48.980;8.410;2023-06-14T05:36:21;99897.56;;;15.98;61.22
32789;BME280;19141;48.980;8.410;2023-06-14T05:38:47;99899.09;;;16.13;60.87
32789;BME280;19141;48.980;8.410;2023-06-14T05:41:13;99901.31;;;16.22;60.35
32789;BME280;19141;48.980;8.410;2023-06-14T05:43:38;99908.28;;;16.30;60.18
32789;BME280;19141;48.980;8.410;2023-06-14T05:46:03;99903.22;;;16.40;59.23
32789;BME280;19141;48.980;8.410;2023-06-14T05:48:30;99903.78;;;16.49;58.37
32789;BME280;19141;48.980;8.410;2023-06-14T05:50:56;99901.97;;;16.43;58.73
32789;BME280;19141;48.980;8.410;2023-06-14T05:53:21;99903.41;;;16.45;57.80
32789;BME280;19141;48.980;8.410;2023-06-14T05:55:47;99914.13;;;16.77;57.31
32789;BME280;19141;48.980;8.410;2023-06-14T05:58:12;99905.59;;;16.80;56.72
32789;BME280;19141;48.980;8.410;2023-06-14T06:00:39;99917.34;;;16.86;57.18
32789;BME280;19141;48.980;8.410;2023-06-14T06:03:04;99916.44;;;16.92;56.50
32789;BME280;19141;48.980;8.410;2023-06-14T06:05:30;99911.13;;;16.85;57.53
32789;BME280;19141;48.980;8.410;2023-06-14T06:07:55;99920.88;;;17.04;56.90
32789;BME280;19141;48.980;8.410;2023-06-14T06:10:21;99916.00;;;16.95;57.26
32789;BME280;19141;48.980;8.410;2023-06-14T06:12:46;99923.03;;;16.96;57.59
32789;BME280;19141;48.980;8.410;2023-06-14T06:15:13;99917.78;;;17.01;56.68
32789;BME280;19141;48.980;8.410;2023-06-14T06:17:39;99922.69;;;17.11;56.78
32789;BME280;19141;48.980;8.410;2023-06-14T06:20:06;99923.66;;;17.16;57.06
32789;BME280;19141;48.980;8.410;2023-06-14T06:22:36;99921.16;;;17.15;56.86
32789;BME280;19141;48.980;8.410;2023-06-14T06:25:01;99919.91;;;17.17;56.72
32789;BME280;19141;48.980;8.410;2023-06-14T06:27:27;99921.94;;;17.22;56.92
32789;BME280;19141;48.980;8.410;2023-06-14T06:29:53;99930.69;;;17.35;57.93
32789;BME280;19141;48.980;8.410;2023-06-14T06:32:18;99921.63;;;17.48;58.20
32789;BME280;19141;48.980;8.410;2023-06-14T06:34:43;99923.25;;;17.68;56.14
32789;BME280;19141;48.980;8.410;2023-06-14T06:37:09;99918.53;;;17.63;55.21
32789;BME280;19141;48.980;8.410;2023-06-14T06:39:34;99918.53;;;17.63;55.73
32789;BME280;19141;48.980;8.410;2023-06-14T06:42:00;99924.88;;;17.69;56.44
32789;BME280;19141;48.980;8.410;2023-06-14T06:44:32;99921.91;;;17.77;56.38
32789;BME280;19141;48.980;8.410;2023-06-14T06:46:58;99925.78;;;17.81;56.38
32789;BME280;19141;48.980;8.410;2023-06-14T06:49:23;99935.19;;;17.90;55.45
32789;BME280;19141;48.980;8.410;2023-06-14T06:52:15;99938.03;;;17.95;54.11
32789;BME280;19141;48.980;8.410;2023-06-14T06:54:40;99935.94;;;18.09;54.65
32789;BME280;19141;48.980;8.410;2023-06-14T06:57:06;99943.13;;;18.15;54.73
32789;BME280;19141;48.980;8.410;2023-06-14T06:59:33;99940.47;;;18.27;54.89
32789;BME280;19141;48.980;8.410;2023-06-14T07:01:58;99945.38;;;18.30;54.50
32789;BME280;19141;48.980;8.410;2023-06-14T07:04:24;99940.00;;;18.30;54.39
32789;BME280;19141;48.980;8.410;2023-06-14T07:06:49;99956.78;;;18.43;54.86
32789;BME280;19141;48.980;8.410;2023-06-14T07:09:15;99955.63;;;18.63;53.71
32789;BME280;19141;48.980;8.410;2023-06-14T07:11:43;99948.75;;;18.67;53.21
32789;BME280;19141;48.980;8.410;2023-06-14T07:14:09;99946.59;;;18.57;53.53
32789;BME280;19141;48.980;8.410;2023-06-14T07:16:34;99949.91;;;18.71;52.87
32789;BME280;19141;48.980;8.410;2023-06-14T07:19:01;99954.00;;;18.62;52.26
32789;BME280;19141;48.980;8.410;2023-06-14T07:21:27;99956.88;;;18.67;52.34
32789;BME280;19141;48.980;8.410;2023-06-14T07:23:53;99961.22;;;18.91;52.21
32789;BME280;19141;48.980;8.410;2023-06-14T07:26:19;99952.19;;;18.86;51.46
32789;BME280;19141;48.980;8.410;2023-06-14T07:28:44;99957.59;;;18.97;51.53
32789;BME280;19141;48.980;8.410;2023-06-14T07:31:10;99966.59;;;19.15;51.17
32789;BME280;19141;48.980;8.410;2023-06-14T07:33:36;99969.06;;;19.16;50.90
32789;BME280;19141;48.980;8.410;2023-06-14T07:36:02;99967.84;;;19.36;50.43
32789;BME280;19141;48.980;8.410;2023-06-14T07:38:28;99967.84;;;19.47;50.68
32789;BME280;19141;48.980;8.410;2023-06-14T07:40:53;99971.22;;;19.66;49.23
32789;BME280;19141;48.980;8.410;2023-06-14T07:43:18;99969.03;;;19.92;48.17
32789;BME280;19141;48.980;8.410;2023-06-14T07:45:44;99970.69;;;19.93;48.62
32789;BME280;19141;48.980;8.410;2023-06-14T07:48:09;99970.63;;;20.04;47.94
32789;BME280;19141;48.980;8.410;2023-06-14T07:50:35;99975.03;;;20.22;47.20
32789;BME280;19141;48.980;8.410;2023-06-14T07:53:00;99973.03;;;20.18;47.46
32789;BME280;19141;48.980;8.410;2023-06-14T07:55:25;99973.97;;;20.23;47.59
32789;BME280;19141;48.980;8.410;2023-06-14T07:57:51;99966.50;;;20.30;47.46
32789;BME280;19141;48.980;8.410;2023-06-14T08:00:18;99974.84;;;20.57;47.22
32789;BME280;19141;48.980;8.410;2023-06-14T08:02:44;99974.09;;;20.45;47.22
32789;BME280;19141;48.980;8.410;2023-06-14T08:05:11;99968.34;;;20.42;46.97
32789;BME280;19141;48.980;8.410;2023-06-14T08:07:37;99968.94;;;20.77;46.10
32789;BME280;19141;48.980;8.410;2023-06-14T08:10:04;99968.69;;;20.96;45.80
32789;BME280;19141;48.980;8.410;2023-06-14T08:12:29;99972.28;;;20.84;45.94
32789;BME280;19141;48.980;8.410;2023-06-14T08:14:55;99967.78;;;20.90;46.63
32789;BME280;19141;48.980;8.410;2023-06-14T08:17:20;99971.03;;;21.09;44.88
32789;BME280;19141;48.980;8.410;2023-06-14T08:19:45;99971.34;;;21.12;46.56
32789;BME280;19141;48.980;8.410;2023-06-14T08:22:12;99977.34;;;21.14;44.77
32789;BME280;19141;48.980;8.410;2023-06-14T08:24:37;99981.13;;;21.30;44.42
32789;BME280;19141;48.980;8.410;2023-06-14T08:27:05;99983.91;;;21.57;44.09
32789;BME280;19141;48.980;8.410;2023-06-14T08:29:31;99976.41;;;21.64;43.67
32789;BME280;19141;48.980;8.410;2023-06-14T08:31:56;99994.97;;;21.73;44.14
32789;BME280;19141;48.980;8.410;2023-06-14T08:34:22;99977.47;;;21.63;43.94
32789;BME280;19141;48.980;8.410;2023-06-14T08:36:50;99975.00;;;21.84;42.20
32789;BME280;19141;48.980;8.410;2023-06-14T08:39:15;99984.38;;;22.20;41.01
32789;BME280;19141;48.980;8.410;2023-06-14T08:41:43;99979.06;;;22.08;42.26
32789;BME280;19141;48.980;8.410;2023-06-14T08:44:11;99977.78;;;21.89;41.97
32789;BME280;19141;48.980;8.410;2023-06-14T08:46:37;99984.94;;;22.22;41.95
32789;BME280;19141;48.980;8.410;2023-06-14T08:49:03;99979.06;;;22.30;41.20
32789;BME280;19141;48.980;8.410;2023-06-14T08:51:32;99971.19;;;22.61;40.33
32789;BME280;19141;48.980;8.410;2023-06-14T08:54:02;99976.66;;;22.66;40.24
32789;BME280;19141;48.980;8.410;2023-06-14T08:56:31;99980.50;;;22.70;41.08
32789;BME280;19141;48.980;8.410;2023-06-14T08:58:58;99978.97;;;22.84;39.77
32789;BME280;19141;48.980;8.410;2023-06-14T09:01:28;99970.69;;;22.69;40.36
32789;BME280;19141;48.980;8.410;2023-06-14T09:03:54;99985.50;;;22.51;40.07
32789;BME280;19141;48.980;8.410;2023-06-14T09:06:21;99975.03;;;22.97;40.16
32789;BME280;19141;48.980;8.410;2023-06-14T09:08:48;99978.03;;;23.00;39.85
32789;BME280;19141;48.980;8.410;2023-06-14T09:11:16;99974.75;;;22.98;40.17
32789;BME280;19141;48.980;8.410;2023-06-14T09:13:44;99972.13;;;23.14;40.27
32789;BME280;19141;48.980;8.410;2023-06-14T09:16:10;99970.50;;;23.13;40.45
32789;BME280;19141;48.980;8.410;2023-06-14T09:18:43;99963.53;;;23.27;39.49
32789;BME280;19141;48.980;8.410;2023-06-14T09:21:12;99973.38;;;23.38;39.44
32789;BME280;19141;48.980;8.410;2023-06-14T09:23:39;99963.53;;;23.27;39.17
32789;BME280;19141;48.980;8.410;2023-06-14T09:26:09;99971.78;;;23.47;38.54
32789;BME280;19141;48.980;8.410;2023-06-14T09:28:35;99977.22;;;23.47;38.80
32789;BME280;19141;48.980;8.410;2023-06-14T09:31:01;99977.63;;;23.71;38.47
32789;BME280;19141;48.980;8.410;2023-06-14T09:33:27;99979.13;;;24.20;38.34
32789;BME280;19141;48.980;8.410;2023-06-14T09:35:54;99979.44;;;24.49;38.56
32789;BME280;19141;48.980;8.410;2023-06-14T09:38:20;99981.38;;;25.04;36.74
32789;BME280;19141;48.980;8.410;2023-06-14T09:40:45;99978.91;;;24.57;37.11
32789;BME280;19141;48.980;8.410;2023-06-14T09:43:11;99974.28;;;24.78;36.16
32789;BME280;19141;48.980;8.410;2023-06-14T09:45:38;99985.19;;;24.73;36.03
32789;BME280;19141;48.980;8.410;2023-06-14T09:48:06;99991.69;;;24.97;35.45
32789;BME280;19141;48.980;8.410;2023-06-14T09:50:32;99983.78;;;25.01;36.09
32789;BME280;19141;48.980;8.410;2023-06-14T09:53:06;99986.50;;;25.31;34.97
32789;BME280;19141;48.980;8.410;2023-06-14T09:55:34;99990.25;;;25.51;34.44
32789;BME280;19141;48.980;8.410;2023-06-14T09:58:04;99991.66;;;25.33;35.60
32789;BME280;19141;48.980;8.410;2023-06-14T10:00:31;99998.34;;;25.71;34.58
32789;BME280;19141;48.980;8.410;2023-06-14T10:03:03;99986.28;;;25.87;33.99
32789;BME280;19141;48.980;8.410;2023-06-14T10:05:32;99986.56;;;25.91;34.23
32789;BME280;19141;48.980;8.410;2023-06-14T10:08:04;99993.53;;;26.12;34.41
32789;BME280;19141;48.980;8.410;2023-06-14T10:10:30;99994.94;;;26.54;32.90
32789;BME280;19141;48.980;8.410;2023-06-14T10:12:56;99996.03;;;26.09;32.82
32789;BME280;19141;48.980;8.410;2023-06-14T10:15:37;99988.91;;;26.52;32.99
32789;BME280;19141;48.980;8.410;2023-06-14T10:21:00;99980.03;;;26.99;31.30
32789;BME280;19141;48.980;8.410;2023-06-14T10:23:32;99977.53;;;27.03;31.33
32789;BME280;19141;48.980;8.410;2023-06-14T10:26:00;99975.56;;;27.14;31.88
32789;BME280;19141;48.980;8.410;2023-06-14T10:28:26;99956.31;;;26.95;30.98
32789;BME280;19141;48.980;8.410;2023-06-14T10:31:18;99978.88;;;27.58;29.20
32789;BME280;19141;48.980;8.410;2023-06-14T10:33:56;99965.94;;;27.64;29.67
32789;BME280;19141;48.980;8.410;2023-06-14T10:39:06;99964.50;;;27.91;29.41
32789;BME280;19141;48.980;8.410;2023-06-14T10:41:38;99973.19;;;28.35;29.74
32789;BME280;19141;48.980;8.410;2023-06-14T10:46:48;99974.47;;;28.76;27.93
32789;BME280;19141;48.980;8.410;2023-06-14T10:49:41;99971.91;;;28.98;27.05
32789;BME280;19141;48.980;8.410;2023-06-14T10:52:12;99970.38;;;28.92;28.79
32789;BME280;19141;48.980;8.410;2023-06-14T10:55:16;99963.53;;;28.43;28.01
32789;BME280;19141;48.980;8.410;2023-06-14T10:57:51;99964.41;;;28.71;28.93
32789;BME280;19141;48.980;8.410;2023-06-14T11:00:24;99965.72;;;29.34;28.51
32789;BME280;19141;48.980;8.410;2023-06-14T11:11:00;99956.81;;;29.28;26.94
32789;BME280;19141;48.980;8.410;2023-06-14T11:13:26;99959.03;;;29.81;26.63
32789;BME280;19141;48.980;8.410;2023-06-14T11:15:52;99964.41;;;29.72;26.37
32789;BME280;19141;48.980;8.410;2023-06-14T11:18:23;99961.00;;;30.03;27.09
32789;BME280;19141;48.980;8.410;2023-06-14T11:20:50;99960.28;;;30.47;25.95
32789;BME280;19141;48.980;8.410;2023-06-14T11:23:15;99945.28;;;30.76;26.99
32789;BME280;19141;48.980;8.410;2023-06-14T11:25:40;99952.59;;;30.80;25.54
32789;BME280;19141;48.980;8.410;2023-06-14T11:28:06;99946.84;;;30.46;25.73
32789;BME280;19141;48.980;8.410;2023-06-14T11:30:32;99925.97;;;30.22;26.04
32789;BME280;19141;48.980;8.410;2023-06-14T11:32:57;99964.91;;;29.88;26.21
32789;BME280;19141;48.980;8.410;2023-06-14T11:35:24;99963.44;;;30.41;26.88
32789;BME280;19141;48.980;8.410;2023-06-14T11:37:54;99963.38;;;30.99;26.48
32789;BME280;19141;48.980;8.410;2023-06-14T11:40:23;99957.09;;;31.39;24.92
32789;BME280;19141;48.980;8.410;2023-06-14T11:42:49;99962.22;;;31.00;25.25
32789;BME280;19141;48.980;8.410;2023-06-14T11:45:14;99958.78;;;30.41;25.56
32789;BME280;19141;48.980;8.410;2023-06-14T11:47:40;99953.69;;;30.12;25.54
32789;BME280;19141;48.980;8.410;2023-06-14T11:50:07;99946.69;;;30.06;26.13
32789;BME280;19141;48.980;8.410;2023-06-14T11:52:34;99951.94;;;29.80;26.72
32789;BME280;19141;48.980;8.410;2023-06-14T11:55:01;99945.44;;;30.12;26.73
32789;BME280;19141;48.980;8.410;2023-06-14T11:57:27;99941.38;;;29.73;27.78
32789;BME280;19141;48.980;8.410;2023-06-14T11:59:54;99942.88;;;28.97;29.47
32789;BME280;19141;48.980;8.410;2023-06-14T12:02:21;99942.56;;;28.99;28.12
32789;BME280;19141;48.980;8.410;2023-06-14T12:04:47;99943.59;;;28.37;28.92
32789;BME280;19141;48.980;8.410;2023-06-14T12:07:17;99941.66;;;27.81;29.18
32789;BME280;19141;48.980;8.410;2023-06-14T12:12:21;99942.53;;;27.77;29.28
32789;BME280;19141;48.980;8.410;2023-06-14T12:14:47;99945.44;;;28.23;29.94
32789;BME280;19141;48.980;8.410;2023-06-14T12:17:12;99943.59;;;28.37;29.41
32789;BME280;19141;48.980;8.410;2023-06-14T12:19:42;99948.72;;;28.90;28.33
32789;BME280;19141;48.980;8.410;2023-06-14T12:22:09;99946.53;;;29.20;28.59
32789;BME280;19141;48.980;8.410;2023-06-14T12:24:35;99952.72;;;29.94;27.34
32789;BME280;19141;48.980;8.410;2023-06-14T12:27:01;99943.31;;;29.59;27.07
32789;BME280;19141;48.980;8.410;2023-06-14T12:29:30;99941.25;;;29.37;27.79
32789;BME280;19141;48.980;8.410;2023-06-14T12:31:55;99948.06;;;29.54;27.33
32789;BME280;19141;48.980;8.410;2023-06-14T12:34:25;99946.22;;;29.08;28.72
32789;BME280;19141;48.980;8.410;2023-06-14T12:36:55;99945.81;;;28.68;28.75
32789;BME280;19141;48.980;8.410;2023-06-14T12:39:21;99942.19;;;28.02;28.62
32789;BME280;19141;48.980;8.410;2023-06-14T12:41:47;99932.66;;;28.37;28.00
32789;BME280;19141;48.980;8.410;2023-06-14T12:44:14;99929.59;;;29.04;27.97
32789;BME280;19141;48.980;8.410;2023-06-14T12:46:41;99945.34;;;29.54;27.59
32789;BME280;19141;48.980;8.410;2023-06-14T12:49:13;99936.38;;;29.20;28.22
32789;BME280;19141;48.980;8.410;2023-06-14T12:51:39;99932.34;;;29.95;28.53
32789;BME280;19141;48.980;8.410;2023-06-14T12:54:05;99935.81;;;30.01;27.15
32789;BME280;19141;48.980;8.410;2023-06-14T12:56:30;99939.50;;;29.83;27.38
32789;BME280;19141;48.980;8.410;2023-06-14T12:58:56;99947.59;;;28.78;27.57
32789;BME280;19141;48.980;8.410;2023-06-14T13:01:21;99939.06;;;28.09;28.88
32789;BME280;19141;48.980;8.410;2023-06-14T13:03:47;99943.59;;;28.70;28.67
32789;BME280;19141;48.980;8.410;2023-06-14T13:06:13;99939.66;;;29.09;28.21
32789;BME280;19141;48.980;8.410;2023-06-14T13:08:39;99950.66;;;30.00;27.11
32789;BME280;19141;48.980;8.410;2023-06-14T13:11:04;99944.63;;;28.74;28.27
32789;BME280;19141;48.980;8.410;2023-06-14T13:13:29;99944.59;;;29.20;28.03
32789;BME280;19141;48.980;8.410;2023-06-14T13:15:55;99942.78;;;29.43;27.32
32789;BME280;19141;48.980;8.410;2023-06-14T13:18:20;99947.28;;;29.67;26.89
32789;BME280;19141;48.980;8.410;2023-06-14T13:20:46;99940.03;;;29.02;27.89
32789;BME280;19141;48.980;8.410;2023-06-14T13:23:12;99945.22;;;29.04;28.58
32789;BME280;19141;48.980;8.410;2023-06-14T13:25:38;99941.16;;;29.42;27.15
32789;BME280;19141;48.980;8.410;2023-06-14T13:28:04;99939.66;;;29.09;27.95
32789;BME280;19141;48.980;8.410;2023-06-14T13:30:30;99954.66;;;28.65;28.04
32789;BME280;19141;48.980;8.410;2023-06-14T13:32:55;99944.34;;;28.24;29.60
32789;BME280;19141;48.980;8.410;2023-06-14T13:35:22;99939.97;;;28.04;29.80
32789;BME280;19141;48.980;8.410;2023-06-14T13:37:47;99943.53;;;28.24;29.01
32789;BME280;19141;48.980;8.410;2023-06-14T13:40:13;99942.47;;;27.82;29.32
32789;BME280;19141;48.980;8.410;2023-06-14T13:42:38;99939.81;;;27.05;30.14
32789;BME280;19141;48.980;8.410;2023-06-14T13:45:04;99946.00;;;27.40;30.09
32789;BME280;19141;48.980;8.410;2023-06-14T13:47:30;99943.38;;;27.29;30.19
32789;BME280;19141;48.980;8.410;2023-06-14T13:49:56;99934.16;;;26.96;30.36
32789;BME280;19141;48.980;8.410;2023-06-14T13:52:22;99939.72;;;26.86;30.87
32789;BME280;19141;48.980;8.410;2023-06-14T13:54:47;99937.63;;;27.07;30.33
32789;BME280;19141;48.980;8.410;2023-06-14T13:57:13;99921.78;;;26.80;30.58
32789;BME280;19141;48.980;8.410;2023-06-14T13:59:39;99935.34;;;26.85;30.13
32789;BME280;19141;48.980;8.410;2023-06-14T14:02:06;99927.22;;;26.80;29.94
32789;BME280;19141;48.980;8.410;2023-06-14T14:04:31;99929.25;;;26.69;30.32
32789;BME280;19141;48.980;8.410;2023-06-14T14:06:57;99936.16;;;26.86;30.33
32789;BME280;19141;48.980;8.410;2023-06-14T14:09:22;99935.94;;;26.82;29.88
32789;BME280;19141;48.980;8.410;2023-06-14T14:11:48;99936.00;;;26.77;29.67
32789;BME280;19141;48.980;8.410;2023-06-14T14:14:14;99937.09;;;27.05;29.21
32789;BME280;19141;48.980;8.410;2023-06-14T14:16:39;99923.88;;;26.88;29.07
32789;BME280;19141;48.980;8.410;2023-06-14T14:19:05;99919.91;;;26.99;29.21
32789;BME280;19141;48.980;8.410;2023-06-14T14:21:31;99922.38;;;27.01;28.96
32789;BME280;19141;48.980;8.410;2023-06-14T14:23:57;99923.63;;;26.85;29.04
32789;BME280;19141;48.980;8.410;2023-06-14T14:26:22;99928.28;;;26.55;29.01
32789;BME280;19141;48.980;8.410;2023-06-14T14:28:49;99927.66;;;26.24;29.75
32789;BME280;19141;48.980;8.410;2023-06-14T14:31:14;99931.84;;;26.11;29.52
32789;BME280;19141;48.980;8.410;2023-06-14T14:33:40;99937.50;;;26.25;29.87
32789;BME280;19141;48.980;8.410;2023-06-14T14:36:05;99937.31;;;26.11;29.99
32789;BME280;19141;48.980;8.410;2023-06-14T14:38:32;99935.97;;;26.09;30.43
32789;BME280;19141;48.980;8.410;2023-06-14T14:40:57;99930.47;;;26.14;30.05
32789;BME280;19141;48.980;8.410;2023-06-14T14:43:23;99946.56;;;26.15;30.74
32789;BME280;19141;48.980;8.410;2023-06-14T14:45:48;99938.94;;;26.12;30.00
32789;BME280;19141;48.980;8.410;2023-06-14T14:48:13;99938.94;;;26.12;30.61
32789;BME280;19141;48.980;8.410;2023-06-14T14:50:39;99933.47;;;26.12;29.71
32789;BME280;19141;48.980;8.410;2023-06-14T14:53:05;99933.75;;;26.16;29.88
32789;BME280;19141;48.980;8.410;2023-06-14T14:55:31;99929.41;;;26.10;29.84
32789;BME280;19141;48.980;8.410;2023-06-14T14:58:00;99935.53;;;26.31;29.48
32789;BME280;19141;48.980;8.410;2023-06-14T15:00:26;99938.34;;;26.20;29.26
32789;BME280;19141;48.980;8.410;2023-06-14T15:02:51;99934.78;;;26.20;29.52
32789;BME280;19141;48.980;8.410;2023-06-14T15:05:17;99938.91;;;26.17;29.67
32789;BME280;19141;48.980;8.410;2023-06-14T15:07:42;99931.25;;;25.75;29.40
32789;BME280;19141;48.980;8.410;2023-06-14T15:10:09;99931.41;;;25.94;29.47
32789;BME280;19141;48.980;8.410;2023-06-14T15:12:35;99932.81;;;25.91;28.93
32789;BME280;19141;48.980;8.410;2023-06-14T15:15:01;99928.06;;;26.07;29.17
32789;BME280;19141;48.980;8.410;2023-06-14T15:17:26;99925.91;;;26.04;29.69
32789;BME280;19141;48.980;8.410;2023-06-14T15:19:52;99918.06;;;25.92;30.31
32789;BME280;19141;48.980;8.410;2023-06-14T15:22:17;99934.13;;;25.99;30.11
32789;BME280;19141;48.980;8.410;2023-06-14T15:24:43;99927.66;;;25.85;30.05
32789;BME280;19141;48.980;8.410;2023-06-14T15:27:09;99937.56;;;25.60;30.42
32789;BME280;19141;48.980;8.410;2023-06-14T15:29:36;99926.88;;;25.74;30.09
32789;BME280;19141;48.980;8.410;2023-06-14T15:32:01;99930.41;;;25.80;30.04
32789;BME280;19141;48.980;8.410;2023-06-14T15:34:27;99927.66;;;25.85;29.84
32789;BME280;19141;48.980;8.410;2023-06-14T15:36:52;99935.38;;;25.62;30.67
32789;BME280;19141;48.980;8.410;2023-06-14T15:39:18;99923.91;;;25.65;30.40
32789;BME280;19141;48.980;8.410;2023-06-14T15:41:43;99920.16;;;25.56;30.10
32789;BME280;19141;48.980;8.410;2023-06-14T15:44:09;99919.06;;;25.57;29.97
32789;BME280;19141;48.980;8.410;2023-06-14T15:46:35;99928.66;;;25.44;30.33
32789;BME280;19141;48.980;8.410;2023-06-14T15:49:00;99928.38;;;25.46;30.76
32789;BME280;19141;48.980;8.410;2023-06-14T15:51:25;99930.75;;;25.63;31.10
32789;BME280;19141;48.980;8.410;2023-06-14T15:53:51;99929.47;;;25.45;30.63
32789;BME280;19141;48.980;8.410;2023-06-14T15:56:17;99923.81;;;25.21;30.72
32789;BME280;19141;48.980;8.410;2023-06-14T15:58:43;99920.50;;;25.34;31.60
32789;BME280;19141;48.980;8.410;2023-06-14T16:01:08;99919.91;;;25.42;31.09
32789;BME280;19141;48.980;8.410;2023-06-14T16:03:34;99895.44;;;25.37;31.28
32789;BME280;19141;48.980;8.410;2023-06-14T16:05:59;99909.41;;;25.15;30.98
32789;BME280;19141;48.980;8.410;2023-06-14T16:08:24;99915.66;;;25.16;31.24
32789;BME280;19141;48.980;8.410;2023-06-14T16:10:50;99914.28;;;25.24;31.27
32789;BME280;19141;48.980;8.410;2023-06-14T16:13:15;99918.91;;;25.23;31.51
32789;BME280;19141;48.980;8.410;2023-06-14T16:15:41;99919.47;;;25.15;30.89
32789;BME280;19141;48.980;8.410;2023-06-14T16:18:06;99917.03;;;25.24;30.55
32789;BME280;19141;48.980;8.410;2023-06-14T16:20:31;99917.56;;;25.15;30.71
32789;BME280;19141;48.980;8.410;2023-06-14T16:22:57;99918.13;;;25.17;30.90
32789;BME280;19141;48.980;8.410;2023-06-14T16:25:22;99908.34;;;25.06;30.92
32789;BME280;19141;48.980;8.410;2023-06-14T16:27:48;99914.03;;;25.15;31.19
32789;BME280;19141;48.980;8.410;2023-06-14T16:30:13;99915.34;;;25.23;31.97
32789;BME280;19141;48.980;8.410;2023-06-14T16:32:38;99918.09;;;25.23;31.85
32789;BME280;19141;48.980;8.410;2023-06-14T16:35:04;99925.72;;;25.26;31.99
32789;BME280;19141;48.980;8.410;2023-06-14T16:37:30;99915.84;;;25.40;32.36
32789;BME280;19141;48.980;8.410;2023-06-14T16:39:55;99918.34;;;25.26;31.79
32789;BME280;19141;48.980;8.410;2023-06-14T16:42:21;99924.63;;;25.32;32.10
32789;BME280;19141;48.980;8.410;2023-06-14T16:44:46;99930.38;;;25.20;31.70
32789;BME280;19141;48.980;8.410;2023-06-14T16:47:11;99921.69;;;25.13;31.32
32789;BME280;19141;48.980;8.410;2023-06-14T16:49:37;99936.13;;;25.08;31.79
32789;BME280;19141;48.980;8.410;2023-06-14T16:52:03;99929.03;;;25.07;31.47
32789;BME280;19141;48.980;8.410;2023-06-14T16:54:28;99935.03;;;24.99;31.90
32789;BME280;19141;48.980;8.410;2023-06-14T16:56:54;99926.88;;;24.99;32.38
32789;BME280;19141;48.980;8.410;2023-06-14T16:59:19;99936.13;;;24.88;32.73
32789;BME280;19141;48.980;8.410;2023-06-14T17:01:45;99930.16;;;24.91;31.83
32789;BME280;19141;48.980;8.410;2023-06-14T17:04:10;99942.69;;;24.92;31.85
32789;BME280;19141;48.980;8.410;2023-06-14T17:06:36;99929.06;;;24.77;31.44
32789;BME280;19141;48.980;8.410;2023-06-14T17:09:02;99939.16;;;24.71;31.51
32789;BME280;19141;48.980;8.410;2023-06-14T17:11:27;99942.16;;;24.70;32.38
32789;BME280;19141;48.980;8.410;2023-06-14T17:13:53;99938.31;;;24.76;32.22
32789;BME280;19141;48.980;8.410;2023-06-14T17:16:19;99936.69;;;24.75;32.31
32789;BME280;19141;48.980;8.410;2023-06-14T17:18:44;99945.44;;;24.72;32.52
32789;BME280;19141;48.980;8.410;2023-06-14T17:21:12;99950.88;;;24.72;33.35
32789;BME280;19141;48.980;8.410;2023-06-14T17:23:38;99957.41;;;24.60;33.40
32789;BME280;19141;48.980;8.410;2023-06-14T17:26:03;99958.75;;;24.68;33.01
32789;BME280;19141;48.980;8.410;2023-06-14T17:28:28;99957.38;;;24.71;32.79
32789;BME280;19141;48.980;8.410;2023-06-14T17:30:54;99969.94;;;24.61;32.81
32789;BME280;19141;48.980;8.410;2023-06-14T17:33:19;99970.50;;;24.58;32.78
32789;BME280;19141;48.980;8.410;2023-06-14T17:35:45;99972.09;;;24.49;32.89
32789;BME280;19141;48.980;8.410;2023-06-14T17:38:10;99971.56;;;24.52;33.09